createdAt,value
2023-03-29T00:01:10.307Z,67.96
2023-03-29T00:03:40.417Z,68.17
2023-03-29T00:06:09.791Z,68.02
2023-03-29T00:08:39.011Z,68.07
2023-03-29T00:11:07.828Z,68.09
2023-03-29T00:13:36.661Z,68.19
2023-03-29T00:16:05.816Z,68.46
2023-03-29T00:18:34.861Z,68.85
2023-03-29T00:21:03.937Z,69.13
2023-03-29T00:23:33.419Z,69.41
2023-03-29T00:26:02.490Z,68.96
2023-03-29T00:28:31.736Z,68.74
2023-03-29T00:31:29.615Z,68.53
2023-03-29T00:33:58.123Z,68.79
2023-03-29T00:36:27.972Z,68.88
2023-03-29T00:38:56.950Z,69.22
2023-03-29T00:41:26.323Z,69.29
2023-03-29T00:44:03.394Z,69.23
2023-03-29T00:46:35.744Z,68.95
2023-03-29T00:49:15.487Z,68.82
2023-03-29T00:51:44.303Z,68.88
2023-03-29T00:54:18.976Z,69.13
2023-03-29T00:56:51.288Z,69.07
2023-03-29T00:59:24.900Z,69.17
2023-03-29T01:02:26.238Z,68.87
2023-03-29T01:05:14.654Z,68.83
2023-03-29T01:07:58.258Z,68.18
2023-03-29T01:11:05.187Z,67.98
2023-03-29T01:13:51.628Z,68.00
2023-03-29T01:16:22.109Z,68.06
2023-03-29T01:18:52.474Z,67.83
2023-03-29T01:21:44.781Z,67.59
2023-03-29T01:24:24.940Z,67.39
2023-03-29T01:27:09.305Z,67.33
2023-03-29T01:29:47.371Z,67.26
2023-03-29T01:32:37.740Z,67.49
2023-03-29T01:35:16.549Z,67.61
2023-03-29T01:38:08.848Z,67.33
2023-03-29T01:40:37.761Z,66.95
2023-03-29T01:43:14.451Z,66.74
2023-03-29T01:46:19.107Z,66.30
2023-03-29T01:49:06.889Z,66.04
2023-03-29T01:52:09.668Z,65.97
2023-03-29T01:54:52.414Z,65.96
2023-03-29T01:57:25.705Z,66.24
2023-03-29T01:59:58.009Z,66.55
2023-03-29T02:02:31.110Z,66.69
2023-03-29T02:05:00.441Z,66.26
2023-03-29T02:07:32.572Z,65.87
2023-03-29T02:10:02.259Z,65.74
2023-03-29T02:12:31.313Z,65.35
2023-03-29T02:15:01.890Z,65.00
2023-03-29T02:17:31.563Z,64.97
2023-03-29T02:20:14.794Z,64.88
2023-03-29T02:23:37.452Z,64.76
2023-03-29T02:26:06.877Z,64.69
2023-03-29T02:28:36.312Z,64.74
2023-03-29T02:31:22.466Z,64.87
2023-03-29T02:34:10.604Z,65.02
2023-03-29T02:36:51.803Z,65.28
2023-03-29T02:39:22.099Z,65.19
2023-03-29T02:41:52.232Z,64.80
2023-03-29T02:44:27.506Z,64.79
2023-03-29T02:47:02.659Z,64.58
2023-03-29T02:49:31.514Z,64.41
2023-03-29T02:52:10.486Z,64.23
2023-03-29T02:54:43.957Z,64.42
2023-03-29T02:57:13.792Z,64.33
2023-03-29T02:59:44.308Z,64.30
2023-03-29T03:02:13.787Z,64.21
2023-03-29T03:04:47.458Z,64.38
2023-03-29T03:07:16.096Z,64.45
2023-03-29T03:09:44.892Z,64.38
2023-03-29T03:12:14.340Z,64.44
2023-03-29T03:14:42.948Z,64.04
2023-03-29T03:17:11.632Z,63.98
2023-03-29T03:19:40.747Z,63.80
2023-03-29T03:22:11.254Z,63.76
2023-03-29T03:24:40.219Z,63.80
2023-03-29T03:27:10.525Z,63.49
2023-03-29T03:29:42.266Z,63.36
2023-03-29T03:32:20.946Z,63.02
2023-03-29T03:34:49.895Z,62.53
2023-03-29T03:37:18.685Z,62.57
2023-03-29T03:39:47.851Z,62.36
2023-03-29T03:42:16.795Z,62.00
2023-03-29T03:44:49.789Z,62.17
2023-03-29T03:47:39.970Z,61.89
2023-03-29T03:50:38.902Z,61.82
2023-03-29T03:53:09.390Z,61.47
2023-03-29T03:55:56.543Z,61.46
2023-03-29T03:58:29.322Z,61.61
2023-03-29T04:00:58.245Z,61.65
2023-03-29T04:03:39.505Z,61.64
2023-03-29T04:06:10.173Z,61.89
2023-03-29T04:09:59.881Z,61.88
2023-03-29T04:12:31.171Z,62.00
2023-03-29T04:15:00.077Z,62.01
2023-03-29T04:17:29.974Z,62.35
2023-03-29T04:20:12.042Z,62.41
2023-03-29T04:22:42.101Z,62.59
2023-03-29T04:25:11.929Z,62.82
2023-03-29T04:27:51.108Z,62.68
2023-03-29T04:30:35.902Z,62.97
2023-03-29T04:33:22.096Z,62.86
2023-03-29T04:35:57.101Z,62.58
2023-03-29T04:38:27.217Z,62.73
2023-03-29T04:40:56.509Z,62.65
2023-03-29T04:43:48.337Z,62.73
2023-03-29T04:46:27.547Z,62.79
2023-03-29T04:49:08.232Z,62.45
2023-03-29T04:51:40.249Z,62.41
2023-03-29T04:54:09.448Z,62.72
2023-03-29T04:57:02.209Z,62.38
2023-03-29T04:59:42.915Z,62.44
2023-03-29T05:02:33.474Z,62.30
2023-03-29T05:05:22.442Z,62.24
2023-03-29T05:07:52.312Z,62.20
2023-03-29T05:10:25.571Z,62.05
2023-03-29T05:12:54.484Z,62.08
2023-03-29T05:15:23.844Z,61.95
2023-03-29T05:17:52.813Z,61.95
2023-03-29T05:23:41.051Z,61.81
2023-03-29T05:26:19.094Z,61.49
2023-03-29T05:28:53.476Z,61.40
2023-03-29T05:34:02.992Z,61.36
2023-03-29T05:36:32.422Z,60.92
2023-03-29T05:39:08.178Z,60.98
2023-03-29T05:41:37.279Z,60.65
2023-03-29T05:44:32.436Z,60.35
2023-03-29T05:47:14.443Z,59.65
2023-03-29T05:49:43.098Z,59.45
2023-03-29T05:52:43.972Z,59.20
2023-03-29T05:55:14.106Z,58.95
2023-03-29T05:57:42.887Z,58.08
2023-03-29T06:00:19.838Z,57.57
2023-03-29T06:02:48.637Z,57.25
2023-03-29T06:05:17.569Z,56.80
2023-03-29T06:08:19.711Z,55.67
2023-03-29T06:11:06.593Z,55.27
2023-03-29T06:13:58.196Z,55.05
2023-03-29T06:16:27.183Z,55.19
2023-03-29T06:18:56.051Z,54.69
2023-03-29T06:21:27.997Z,54.86
2023-03-29T06:23:57.018Z,54.04
2023-03-29T06:26:27.969Z,53.99
2023-03-29T06:28:57.958Z,53.13
2023-03-29T06:31:26.875Z,53.37
2023-03-29T06:33:55.744Z,53.60
2023-03-29T06:36:51.536Z,53.49
2023-03-29T06:39:21.460Z,52.72
2023-03-29T06:42:20.190Z,52.49
2023-03-29T06:45:12.525Z,53.40
2023-03-29T06:47:41.483Z,52.80
2023-03-29T06:50:11.881Z,52.64
2023-03-29T06:52:48.096Z,51.77
2023-03-29T06:55:19.847Z,51.14
2023-03-29T06:57:49.240Z,50.84
2023-03-29T07:00:19.730Z,51.19
2023-03-29T07:03:20.098Z,51.06
2023-03-29T07:06:01.664Z,50.67
2023-03-29T07:08:35.439Z,50.45
2023-03-29T07:11:08.806Z,50.32
2023-03-29T07:14:31.031Z,50.68
2023-03-29T07:17:00.196Z,50.61
2023-03-29T07:19:41.945Z,50.87
2023-03-29T07:22:51.929Z,49.76
2023-03-29T07:25:24.948Z,49.11
2023-03-29T07:27:54.428Z,48.72
2023-03-29T07:30:30.955Z,48.40
2023-03-29T07:33:12.543Z,46.96
2023-03-29T07:35:48.069Z,46.85
2023-03-29T07:38:16.942Z,47.16
2023-03-29T07:40:54.227Z,47.05
2023-03-29T07:43:41.990Z,47.14
2023-03-29T07:46:11.609Z,46.98
2023-03-29T07:48:40.778Z,46.33
2023-03-29T07:51:14.572Z,45.88
2023-03-29T07:53:50.580Z,46.19
2023-03-29T07:56:33.109Z,46.86
2023-03-29T07:59:14.719Z,47.18
2023-03-29T08:01:48.625Z,46.93
2023-03-29T08:04:27.030Z,45.97
2023-03-29T08:07:19.340Z,45.00
2023-03-29T08:10:10.215Z,45.44
2023-03-29T08:13:22.752Z,45.08
2023-03-29T08:16:18.035Z,45.53
2023-03-29T08:18:53.029Z,44.51
2023-03-29T08:21:23.398Z,44.31
2023-03-29T08:23:52.683Z,45.82
2023-03-29T08:26:27.410Z,46.85
2023-03-29T08:28:56.957Z,48.35
2023-03-29T08:31:26.257Z,48.88
2023-03-29T08:33:55.128Z,48.88
2023-03-29T08:36:49.318Z,45.90
2023-03-29T08:39:27.954Z,45.49
2023-03-29T08:42:46.559Z,45.56
2023-03-29T08:46:11.208Z,44.31
2023-03-29T08:49:13.587Z,44.74
2023-03-29T08:51:52.010Z,45.16
2023-03-29T08:54:27.545Z,45.21
2023-03-29T08:57:50.068Z,44.57
2023-03-29T09:00:36.670Z,44.32
2023-03-29T09:06:22.356Z,47.44
2023-03-29T09:08:53.821Z,48.16
2023-03-29T09:11:45.649Z,48.41
2023-03-29T09:14:34.655Z,47.92
2023-03-29T09:17:28.071Z,47.03
2023-03-29T09:20:37.837Z,45.90
2023-03-29T09:23:37.176Z,44.18
2023-03-29T09:27:10.338Z,43.83
2023-03-29T09:30:20.133Z,44.84
2023-03-29T09:33:42.819Z,45.64
2023-03-29T09:36:53.943Z,42.30
2023-03-29T09:39:23.365Z,41.42
2023-03-29T09:42:12.047Z,41.05
2023-03-29T09:44:59.238Z,41.61
2023-03-29T09:47:52.605Z,41.97
2023-03-29T09:50:41.395Z,42.23
2023-03-29T09:53:11.187Z,42.82
2023-03-29T09:55:48.448Z,43.44
2023-03-29T09:58:31.858Z,45.19
2023-03-29T10:01:13.162Z,47.62
2023-03-29T10:03:42.801Z,48.65
2023-03-29T10:06:14.856Z,48.36
2023-03-29T10:09:03.285Z,48.03
2023-03-29T10:11:40.288Z,47.42
2023-03-29T10:14:52.236Z,47.20
2023-03-29T10:17:26.779Z,44.56
2023-03-29T10:20:06.423Z,44.24
2023-03-29T10:22:42.586Z,43.52
2023-03-29T10:25:18.843Z,43.59
2023-03-29T10:27:48.009Z,44.15
2023-03-29T10:30:26.581Z,44.00
2023-03-29T10:33:00.356Z,44.20
2023-03-29T10:35:44.703Z,44.50
2023-03-29T10:38:18.335Z,44.35
2023-03-29T10:40:54.515Z,44.33
2023-03-29T10:43:30.257Z,44.65
2023-03-29T10:46:29.076Z,45.16
2023-03-29T10:49:00.308Z,45.24
2023-03-29T10:51:30.986Z,46.15
2023-03-29T10:54:01.599Z,46.50
2023-03-29T10:56:44.235Z,46.46
2023-03-29T10:59:32.471Z,46.63
2023-03-29T11:02:20.668Z,46.95
2023-03-29T11:05:37.715Z,47.52
2023-03-29T11:08:47.447Z,48.44
2023-03-29T11:12:14.471Z,50.55
2023-03-29T11:15:06.979Z,52.17
2023-03-29T11:18:05.215Z,52.19
2023-03-29T11:21:23.618Z,51.77
2023-03-29T11:24:27.987Z,51.49
2023-03-29T11:27:23.928Z,50.59
2023-03-29T11:30:30.773Z,50.66
2023-03-29T11:33:46.866Z,50.79
2023-03-29T11:36:43.181Z,49.70
2023-03-29T11:39:29.055Z,50.06
2023-03-29T11:46:44.493Z,56.24
2023-03-29T11:49:30.531Z,56.95
2023-03-29T11:52:20.551Z,56.64
2023-03-29T11:55:26.330Z,56.11
2023-03-29T11:58:04.361Z,54.09
2023-03-29T12:00:45.121Z,53.45
2023-03-29T12:06:46.710Z,53.05
2023-03-29T12:09:40.240Z,51.87
2023-03-29T12:12:33.592Z,50.26
2023-03-29T12:15:13.376Z,50.18
2023-03-29T12:18:15.838Z,50.65
2023-03-29T12:20:51.546Z,51.26
2023-03-29T12:23:20.225Z,50.70
2023-03-29T12:25:58.129Z,50.78
2023-03-29T12:29:10.095Z,51.27
2023-03-29T12:32:19.559Z,50.52
2023-03-29T12:35:43.272Z,50.24
2023-03-29T12:38:32.790Z,50.10
2023-03-29T12:41:50.318Z,50.26
2023-03-29T12:44:37.718Z,50.04
2023-03-29T12:48:00.841Z,50.38
2023-03-29T12:51:01.470Z,50.68
2023-03-29T12:53:40.062Z,49.93
2023-03-29T12:56:17.817Z,49.44
2023-03-29T12:58:49.579Z,48.96
2023-03-29T13:01:34.774Z,48.51
2023-03-29T13:04:18.688Z,46.39
2023-03-29T13:07:29.080Z,44.60
2023-03-29T13:10:30.004Z,43.71
2023-03-29T13:13:25.177Z,42.45
2023-03-29T13:15:54.244Z,41.99
2023-03-29T13:22:11.592Z,43.33
2023-03-29T13:25:07.832Z,43.80
2023-03-29T13:27:51.942Z,44.32
2023-03-29T13:31:04.508Z,44.64
2023-03-29T13:34:35.484Z,45.17
2023-03-29T13:37:36.856Z,45.03
2023-03-29T13:40:30.148Z,45.12
2023-03-29T13:43:25.287Z,45.41
2023-03-29T13:45:56.952Z,45.29
2023-03-29T13:48:37.874Z,45.63
2023-03-29T13:51:18.898Z,45.21
2023-03-29T13:54:14.072Z,45.21
2023-03-29T13:57:02.922Z,44.61
2023-03-29T13:59:52.603Z,44.26
2023-03-29T14:02:43.854Z,44.67
2023-03-29T14:05:17.986Z,44.23
2023-03-29T14:07:55.157Z,44.42
2023-03-29T14:10:35.010Z,43.80
2023-03-29T14:14:05.488Z,44.38
2023-03-29T14:16:39.278Z,45.18
2023-03-29T14:19:40.324Z,45.60
2023-03-29T14:22:21.601Z,45.78
2023-03-29T14:24:57.521Z,45.78
2023-03-29T14:27:31.892Z,45.83
2023-03-29T14:30:01.042Z,45.75
2023-03-29T14:32:32.126Z,46.15
2023-03-29T14:35:00.964Z,45.57
2023-03-29T14:37:30.333Z,45.38
2023-03-29T14:39:59.567Z,45.33
2023-03-29T14:42:29.519Z,45.07
2023-03-29T14:45:06.663Z,44.68
2023-03-29T14:47:36.738Z,45.24
2023-03-29T14:50:17.266Z,45.25
2023-03-29T14:52:52.288Z,44.75
2023-03-29T14:55:24.687Z,44.10
2023-03-29T14:57:57.485Z,43.39
2023-03-29T15:00:38.955Z,42.05
2023-03-29T15:03:15.247Z,40.96
2023-03-29T15:05:54.669Z,41.27
2023-03-29T15:08:33.074Z,40.94
2023-03-29T15:11:03.328Z,41.16
2023-03-29T15:14:06.030Z,40.83
2023-03-29T15:16:44.622Z,41.13
2023-03-29T15:19:23.206Z,41.27
2023-03-29T15:21:52.098Z,41.86
2023-03-29T15:24:34.330Z,41.72
2023-03-29T15:27:54.400Z,41.66
2023-03-29T15:30:36.967Z,41.49
2023-03-29T15:33:23.240Z,41.70
2023-03-29T15:35:54.114Z,41.64
2023-03-29T15:38:30.212Z,42.21
2023-03-29T15:41:08.632Z,42.07
2023-03-29T15:43:37.727Z,41.41
2023-03-29T15:46:06.869Z,41.09
2023-03-29T15:48:35.882Z,41.61
2023-03-29T15:51:06.834Z,41.88
2023-03-29T15:53:36.317Z,42.00
2023-03-29T15:56:10.368Z,41.59
2023-03-29T15:58:39.392Z,41.93
2023-03-29T16:01:34.755Z,41.99
2023-03-29T16:04:14.375Z,41.61
2023-03-29T16:06:48.709Z,42.04
2023-03-29T16:09:17.803Z,42.38
2023-03-29T16:11:47.078Z,42.39
2023-03-29T16:14:31.509Z,42.53
2023-03-29T16:17:01.894Z,42.78
2023-03-29T16:19:32.279Z,42.81
2023-03-29T16:22:07.663Z,42.83
2023-03-29T16:24:36.806Z,43.00
2023-03-29T16:27:05.597Z,43.26
2023-03-29T16:29:34.423Z,43.07
2023-03-29T16:32:06.135Z,43.37
2023-03-29T16:34:36.190Z,43.87
2023-03-29T16:37:04.834Z,44.09
2023-03-29T16:39:33.543Z,43.98
2023-03-29T16:42:02.230Z,44.12
2023-03-29T16:44:31.163Z,44.49
2023-03-29T16:47:00.708Z,44.51
2023-03-29T16:49:29.546Z,44.74
2023-03-29T16:52:00.260Z,44.63
2023-03-29T16:54:30.394Z,45.02
2023-03-29T16:56:59.262Z,44.94
2023-03-29T16:59:28.507Z,45.12
2023-03-29T17:01:57.297Z,45.40
2023-03-29T17:04:26.644Z,45.33
2023-03-29T17:06:57.144Z,45.36
2023-03-29T17:09:27.737Z,45.63
2023-03-29T17:14:53.027Z,46.12
2023-03-29T17:17:21.828Z,46.14
2023-03-29T17:19:50.963Z,46.08
2023-03-29T17:22:20.315Z,46.10
2023-03-29T17:24:49.322Z,46.48
2023-03-29T17:27:20.210Z,46.32
2023-03-29T17:29:52.038Z,46.68
2023-03-29T17:32:26.886Z,46.98
2023-03-29T17:34:55.725Z,46.89
2023-03-29T17:37:25.780Z,46.97
2023-03-29T17:39:55.445Z,47.15
2023-03-29T17:42:30.127Z,47.26
2023-03-29T17:45:02.164Z,47.75
2023-03-29T17:47:31.809Z,47.68
2023-03-29T17:50:02.103Z,47.53
2023-03-29T17:52:35.946Z,47.70
2023-03-29T17:55:06.115Z,48.10
2023-03-29T17:57:34.776Z,47.73
2023-03-29T18:00:06.234Z,48.17
2023-03-29T18:02:35.221Z,48.30
2023-03-29T18:05:06.602Z,48.28
2023-03-29T18:07:57.280Z,48.58
2023-03-29T18:10:26.399Z,48.50
2023-03-29T18:12:55.662Z,48.70
2023-03-29T18:15:24.825Z,48.72
2023-03-29T18:17:53.782Z,48.93
2023-03-29T18:20:22.986Z,48.99
2023-03-29T18:23:24.901Z,49.22
2023-03-29T18:26:05.377Z,49.00
2023-03-29T18:28:39.067Z,49.10
2023-03-29T18:31:09.835Z,49.36
2023-03-29T18:33:39.124Z,49.28
2023-03-29T18:36:12.197Z,49.24
2023-03-29T18:38:44.182Z,49.28
2023-03-29T18:41:14.354Z,49.37
2023-03-29T18:43:46.510Z,49.68
2023-03-29T18:46:20.162Z,49.74
2023-03-29T18:48:48.965Z,49.99
2023-03-29T18:51:17.686Z,50.23
2023-03-29T18:53:46.406Z,49.80
2023-03-29T18:56:15.285Z,49.96
2023-03-29T18:58:43.941Z,50.76
2023-03-29T19:01:16.877Z,50.55
2023-03-29T19:03:45.773Z,50.94
2023-03-29T19:06:15.434Z,51.01
2023-03-29T19:08:44.037Z,50.94
2023-03-29T19:11:15.034Z,50.84
2023-03-29T19:13:47.114Z,51.24
2023-03-29T19:16:16.425Z,51.16
2023-03-29T19:18:46.010Z,51.29
2023-03-29T19:21:15.092Z,51.55
2023-03-29T19:23:44.032Z,51.60
2023-03-29T19:26:12.716Z,51.42
2023-03-29T19:28:41.687Z,51.57
2023-03-29T19:31:11.092Z,52.22
2023-03-29T19:33:49.965Z,52.55
2023-03-29T19:36:19.197Z,52.41
2023-03-29T19:38:48.115Z,52.34
2023-03-29T19:41:17.064Z,52.50
2023-03-29T19:43:45.944Z,52.68
2023-03-29T19:46:16.932Z,53.27
2023-03-29T19:48:45.871Z,53.53
2023-03-29T19:51:14.727Z,53.82
2023-03-29T19:53:43.437Z,54.22
2023-03-29T19:56:13.417Z,53.89
2023-03-29T19:58:42.382Z,53.65
2023-03-29T20:01:10.939Z,53.70
2023-03-29T20:03:41.587Z,53.77
2023-03-29T20:06:12.354Z,53.88
2023-03-29T20:08:41.062Z,53.56
2023-03-29T20:11:11.690Z,53.95
2023-03-29T20:13:46.114Z,53.98
2023-03-29T20:16:19.579Z,53.93
2023-03-29T20:18:48.129Z,53.95
2023-03-29T20:21:17.117Z,54.09
2023-03-29T20:23:46.321Z,54.55
2023-03-29T20:26:15.680Z,54.97
2023-03-29T20:28:44.383Z,55.25
2023-03-29T20:31:13.335Z,55.22
2023-03-29T20:33:42.706Z,55.52
2023-03-29T20:36:12.568Z,55.47
2023-03-29T20:38:41.420Z,56.16
2023-03-29T20:41:11.754Z,56.22
2023-03-29T20:43:41.454Z,56.07
2023-03-29T20:46:14.755Z,55.93
2023-03-29T20:48:54.337Z,56.32
2023-03-29T20:53:48.611Z,56.36
2023-03-29T20:56:19.591Z,56.29
2023-03-29T20:58:48.265Z,56.56
2023-03-29T21:01:16.938Z,56.72
2023-03-29T21:03:45.586Z,56.57
2023-03-29T21:06:15.778Z,56.66
2023-03-29T21:08:45.495Z,56.88
2023-03-29T21:11:17.616Z,57.42
2023-03-29T21:13:46.414Z,57.09
2023-03-29T21:16:15.954Z,57.44
2023-03-29T21:18:44.695Z,57.46
2023-03-29T21:21:13.855Z,57.47
2023-03-29T21:23:42.423Z,57.60
2023-03-29T21:26:10.934Z,57.63
2023-03-29T21:28:41.068Z,56.89
2023-03-29T21:31:10.374Z,56.21
2023-03-29T21:33:39.495Z,55.72
2023-03-29T21:36:08.580Z,55.42
2023-03-29T21:38:37.365Z,55.26
2023-03-29T21:41:12.152Z,55.36
2023-03-29T21:43:40.798Z,55.27
2023-03-29T21:46:11.320Z,55.26
2023-03-29T21:48:40.083Z,55.80
2023-03-29T21:51:09.166Z,56.11
2023-03-29T21:53:37.787Z,56.34
2023-03-29T21:56:08.564Z,56.44
2023-03-29T21:58:37.108Z,56.43
2023-03-29T22:01:07.437Z,56.81
2023-03-29T22:03:46.447Z,56.81
2023-03-29T22:06:15.177Z,57.03
2023-03-29T22:08:43.820Z,56.78
2023-03-29T22:11:15.820Z,57.01
2023-03-29T22:13:44.849Z,57.03
2023-03-29T22:16:14.283Z,57.12
2023-03-29T22:18:43.298Z,57.14
2023-03-29T22:21:26.774Z,56.76
2023-03-29T22:23:58.928Z,56.75
2023-03-29T22:26:32.347Z,56.72
2023-03-29T22:29:01.621Z,56.82
2023-03-29T22:31:31.860Z,56.43
2023-03-29T22:34:02.804Z,56.88
2023-03-29T22:36:32.535Z,56.85
2023-03-29T22:39:01.256Z,56.40
2023-03-29T22:41:29.816Z,56.57
2023-03-29T22:44:01.088Z,56.28
2023-03-29T22:46:29.793Z,56.09
2023-03-29T22:48:58.492Z,56.02
2023-03-29T22:51:27.437Z,56.06
2023-03-29T22:53:56.009Z,55.94
2023-03-29T22:56:24.993Z,55.97
2023-03-29T22:58:53.690Z,56.09
2023-03-29T23:01:22.568Z,56.21
2023-03-29T23:03:51.209Z,56.15
2023-03-29T23:06:19.905Z,57.17
2023-03-29T23:08:48.596Z,57.25
2023-03-29T23:11:17.053Z,57.29
2023-03-29T23:13:49.092Z,57.10
2023-03-29T23:16:20.889Z,56.98
2023-03-29T23:18:49.802Z,56.97
2023-03-29T23:21:18.442Z,57.98
2023-03-29T23:23:47.051Z,57.81
2023-03-29T23:26:16.057Z,58.26
2023-03-29T23:28:44.922Z,57.81
2023-03-29T23:31:19.195Z,58.05
2023-03-29T23:33:49.602Z,57.56
2023-03-29T23:36:18.954Z,57.48
2023-03-29T23:38:47.992Z,57.71
2023-03-29T23:41:18.842Z,58.74
2023-03-29T23:43:48.695Z,58.39
2023-03-29T23:46:19.476Z,58.21
2023-03-29T23:48:50.294Z,58.62
2023-03-29T23:51:23.375Z,58.53
2023-03-29T23:53:52.096Z,59.03
2023-03-29T23:56:24.479Z,58.34
2023-03-29T23:58:53.100Z,57.85
